Portada
METAR-TAF:

METAR-TAF

Aeropuertos :

Karl Stefan Memorial Airport

Norfolk, Nebraska, Estados Unidos

latitud: 41-58-50N, longitud: 097-26-13W, altitud: 479 m

Observación

El informe se hizo hace 54 minutos, a las 16:56 UTC
Viento 8 kt del sur
Temperatura 3°C
Humedad 48%
Presión 1015 hPa
Visibilidad: 16.1 km
Cielo despejado

METAR: KOFK 011656Z AUTO 17008KT 10SM CLR 03/M07 A2997 RMK AO2 SLP164 T00281072

Hora: 11:50 (17:50 UTC)

Pronóstico

El informe se hizo hace 25 minutos, a las 17:25 UTC
Pronóstico válido del 01 a las 18 UTC al 02 a las 18 UTC
Viento 13 kt del sur
Visibilidad: 10 km
Escasas nubes a una altura de 25000 ft
A partir de las 01 a las 2200 UTC
Viento 10 kt del sur
Visibilidad: 10 km
Nubes dispersas a una altura de 25000 ft
A partir de las 02 a las 0500 UTC
Viento 6 kt del norte
Visibilidad: 10 km
Cielo nuboso a una altura de 20000 ft

TAF: KOFK 011725Z 0118/0218 18013KT P6SM FEW250 FM012200 17010KT P6SM SCT250 FM020500 35006KT P6SM BKN200

Observaciones y pronósticos meteorológicos de más de 4000 aeropuertos (mensajes METAR y TAF).

Los puntos amarillos y rojos representan las estaciones disponibles.

Ponga el ratón en el punto deseado para ver el nombre de la estación.

Haga clic para ver las observaciones y los pronósticos meteorológicos.

Para cambiar el mapa : haga clic en los botones verdes con una cruz de color negro para hacer un zoom, en el botón verde con un guión para alejar o en las flechas verdes para mapas adyacentes.


METAR-TAF: